Airfield :
LOGIN :

Register | Disclaimer

   EN    FR    IT 

 










Legend :    VFR   Marginal VFR   IFR   Intensive IFR   Very Intensive IFR
Visi :
Ceiling :
>= 8 km
>= 3000ft
5 to 8 km
1000 to 3000 ft
1500m to 5 km
500 to 1000 ft
800 to 1500m
200 to 500 ft
< 800m
< 200 ft
Symbols :   Thunderstorms  Fog  Heavy snow  Heavy precipitations  Wind > 20 kt
SIGMETs :     Misc.  Thunderstorms  Icing  Turbulence  Mountain Waves  Volcanic Ashes







- Airport Elevation : 26 ft
- IATA code : BIA
- Download approach charts


LFKB - Bastia

CURRENT METAR :
  • 210100Z AUTO 25005KT CAVOK 17/13 Q1020 TEMPO 4000 BR

EXPIRED METARs :
  • 210030Z AUTO 22003KT 200V260 CAVOK 16/13 Q1020 TEMPO 4000 BR
  • 210000Z AUTO VRB03KT CAVOK 17/13 Q1020 TEMPO 4000 BR
  • 202330Z AUTO 22006KT 190V260 CAVOK 17/14 Q1020 TEMPO 4000 BR
  • 202300Z AUTO 21006KT 190V250 CAVOK 18/15 Q1020 TEMPO 4000 BR
  • 202230Z AUTO 22006KT CAVOK 18/15 Q1020 TEMPO 4000 BR

TAF TAF LFKB
Valid from the 20 at 21:00 until the 21 at 21:00 UTC


202000Z 2021/2121 VRB03KT 9999 FEW016
TEMPO 2021/2106 4000 BR
BECMG 2108/2110 14010KT
BECMG 2117/2120 VRB03KT BKN012 TX24/2113Z TN14/2104Z
ATIS : +33 4 95 59 19 40
No reported NOTAMs for that airfield.



MET'MAP, your aeronautical weather chart ! - Copyright ORBIFLY December 2007 - Disclaimer

ORBIFLY MET'MAP TEAM :

Programming & Development : Alexandra Zaïnal
Concept & Development : Baudouin d'Aumeries
Co-Development & Prog : Marc-Olivier Méhu
Technical & hardware support : Manuel Goepfert

Contact : metmap@orbifly.com




SOURCES & CREDITS :

   NOAA